Glasgow International Airport – EGPF

METAR:

EGPF 231720Z AUTO 20010KT 150V220 9999 -RA SCT029 BKN034 BKN043 10/06 Q0984


TAF:

TAF EGPF 231655Z 2318/2418 21010KT 9999 SCT018 BKN035 TEMPO 2318/2323 6000 SHRA BKN014 PROB40 TEMPO 2318/2321 22015G25KT 3000 +SHRA BKN009 BKN015CB TEMPO 2323/2412 5000 RA SHRA BKN010 PROB40 TEMPO 2412/2418 6000 SHRA